Current Weather

Aeroparque Jorge Newbery

Aeroparque Jorge Newbery, Argentina (SABE)

Report from: Monday, May 23, 2022 5:00 AM -03
Current time: Monday, May 23, 2022 5:43 AM -03

Nearby weather
Weather history
Weather forecast

Temperature14.0°C (57.2°F)
Dew point12.0°C (53.6°F)
Winds 6 kts (3.1 m/s, 6.9 mph) North (360°)
Clouds Sky clear
Altimeter30.00 in.Hg (1016 mB)
Relative humidity88 %
Density altitude-15 ft. (-5 m)
Remarks Ceiling and visibility OK
Corrected report
No significant changes expected in the next two hours
Flight conditions Visual Meteorological Conditions
Raw dataCOR SABE 230800Z 36006KT CAVOK 14/12 Q1016 NOSIG
An error has occurred. This application may no longer respond until reloaded. Reload 🗙